Time;durP1;ratioP1;P1;durP2;ratioP2;P2;SDS_P1;SDS_P2;PMS_P1;PMS_P2;Temp;Humidity;BMP_temperature;BMP_pressure;BME280_temperature;BME280_humidity;BME280_pressure;Samples;Min_cycle;Max_cycle;Signal;HPM_P1;HPM_P2
2023/10/14 00:01:03;;;;;;;1.63;1.50;;;18.70;58.90;;;;;;5051325;28;20412;-62
2023/10/14 00:03:35;;;;;;;1.60;1.43;;;18.90;59.20;;;;;;5052124;28;20428;-62
2023/10/14 00:06:12;;;;;;;2.00;1.33;;;18.90;59.60;;;;;;5051244;28;20400;-62
2023/10/14 00:08:47;;;;;;;3.63;2.70;;;19.00;59.60;;;;;;5051189;28;20774;-63
2023/10/14 00:11:17;;;;;;;4.87;2.53;;;19.10;60.80;;;;;;5051231;28;20452;-62
2023/10/14 00:13:48;;;;;;;2.10;1.87;;;19.10;61.60;;;;;;5055073;28;20928;-62
2023/10/14 00:16:48;;;;;;;2.53;2.33;;;19.10;61.40;;;;;;5054872;28;20412;-62
2023/10/14 00:19:09;;;;;;;1.93;1.83;;;19.10;61.60;;;;;;5055019;28;20412;-62
2023/10/14 00:21:36;;;;;;;2.30;2.10;;;19.20;62.70;;;;;;5055196;28;20408;-62
2023/10/14 00:24:05;;;;;;;2.27;1.93;;;19.20;62.40;;;;;;5054993;28;20906;-62
2023/10/14 00:26:31;;;;;;;3.70;3.00;;;19.20;63.20;;;;;;5054741;28;20414;-62
2023/10/14 00:29:10;;;;;;;3.23;2.70;;;19.20;64.00;;;;;;5054704;28;20416;-62
2023/10/14 00:31:36;;;;;;;4.43;2.30;;;19.20;63.70;;;;;;5054835;28;20475;-63
2023/10/14 00:34:03;;;;;;;3.67;3.37;;;19.30;64.20;;;;;;5055078;28;20422;-62
2023/10/14 00:36:31;;;;;;;5.33;2.03;;;19.30;64.90;;;;;;5054643;28;20457;-62
2023/10/14 00:38:57;;;;;;;3.13;2.13;;;19.20;67.50;;;;;;5054495;28;20423;-62
2023/10/14 00:41:27;;;;;;;4.10;2.10;;;19.20;68.30;;;;;;5054901;28;20455;-62
2023/10/14 00:43:54;;;;;;;6.47;2.10;;;19.10;75.60;;;;;;5054739;28;20512;-62
2023/10/14 00:46:23;;;;;;;3.87;2.00;;;18.80;75.80;;;;;;5054380;28;20423;-62
2023/10/14 00:49:00;;;;;;;2.80;2.10;;;18.80;77.20;;;;;;5054444;28;20780;-62
2023/10/14 00:51:30;;;;;;;5.80;3.30;;;18.60;83.20;;;;;;5054257;28;20834;-62
2023/10/14 00:54:10;;;;;;;3.33;2.63;;;18.40;91.70;;;;;;5054388;28;20795;-62
2023/10/14 00:56:40;;;;;;;2.53;2.33;;;18.00;95.70;;;;;;5054320;28;20428;-62
2023/10/14 00:59:08;;;;;;;2.43;2.20;;;17.90;98.00;;;;;;5054613;28;20437;-62
2023/10/14 01:01:55;;;;;;;4.27;2.87;;;17.80;98.70;;;;;;5054306;28;20493;-62
2023/10/14 01:04:31;;;;;;;2.43;2.03;;;17.60;99.80;;;;;;5054330;28;20416;-62
2023/10/14 01:07:12;;;;;;;1.70;1.60;;;17.50;99.90;;;;;;5053979;28;20412;-62
2023/10/14 01:12:38;;;;;;;3.60;2.73;;;17.10;99.90;;;;;;5054162;28;20487;-62
2023/10/14 01:14:52;;;;;;;2.90;1.80;;;16.90;99.90;;;;;;5053854;28;20439;-62
2023/10/14 01:17:32;;;;;;;3.30;1.70;;;16.80;99.90;;;;;;5053946;28;20400;-62
2023/10/14 01:20:06;;;;;;;2.80;2.40;;;16.70;99.90;;;;;;5054146;28;20401;-62
2023/10/14 01:22:34;;;;;;;2.87;1.80;;;16.70;99.90;;;;;;5053406;28;20841;-62
2023/10/14 01:25:05;;;;;;;5.00;1.50;;;16.70;99.90;;;;;;5054566;28;20489;-62
2023/10/14 01:27:34;;;;;;;4.23;2.47;;;16.60;99.90;;;;;;5053630;28;20415;-62
2023/10/14 01:29:59;;;;;;;1.73;1.53;;;16.60;99.90;;;;;;5053601;28;20438;-62
2023/10/14 01:35:20;;;;;;;1.97;1.87;;;16.50;99.90;;;;;;5053790;28;20231;-62
2023/10/14 01:37:46;;;;;;;4.23;1.97;;;16.40;99.90;;;;;;5053387;28;20412;-62
2023/10/14 01:40:26;;;;;;;1.90;1.70;;;16.40;99.90;;;;;;5053632;28;20857;-62
2023/10/14 01:42:56;;;;;;;1.53;1.43;;;16.40;99.90;;;;;;5053541;28;20250;-62
2023/10/14 01:45:31;;;;;;;2.03;1.83;;;16.40;99.90;;;;;;5054017;28;20966;-62
2023/10/14 01:50:46;;;;;;;4.00;2.60;;;16.50;99.90;;;;;;5053241;28;20468;-62
2023/10/14 01:53:18;;;;;;;2.03;1.83;;;16.60;99.90;;;;;;5053412;28;20424;-62
2023/10/14 01:55:45;;;;;;;2.53;2.17;;;16.70;99.90;;;;;;5053348;28;20918;-62
2023/10/14 01:58:29;;;;;;;3.70;1.73;;;16.70;99.90;;;;;;5052866;28;20444;-62
2023/10/14 02:03:50;;;;;;;2.63;1.93;;;16.60;99.90;;;;;;5053287;28;20439;-62
2023/10/14 02:06:21;;;;;;;1.40;1.30;;;16.60;99.90;;;;;;5053085;28;20412;-62
2023/10/14 02:08:52;;;;;;;2.47;1.40;;;16.60;99.90;;;;;;5053001;28;20419;-62
2023/10/14 02:11:22;;;;;;;6.40;3.00;;;16.60;99.90;;;;;;5053032;28;20480;-62
2023/10/14 02:13:52;;;;;;;2.60;1.73;;;16.60;99.90;;;;;;5052922;28;20424;-62
2023/10/14 02:19:21;;;;;;;1.63;1.40;;;16.50;99.90;;;;;;5056545;28;20413;-62
2023/10/14 02:21:57;;;;;;;2.73;1.90;;;16.60;99.90;;;;;;5052962;28;20411;-62
2023/10/14 02:24:25;;;;;;;3.30;1.73;;;16.60;99.90;;;;;;5052907;28;20424;-62
2023/10/14 02:26:51;;;;;;;3.80;2.20;;;16.50;99.90;;;;;;5052435;28;20408;-62
2023/10/14 02:29:17;;;;;;;1.73;1.63;;;16.50;99.90;;;;;;5051554;28;20412;-61
2023/10/14 02:31:46;;;;;;;2.77;2.17;;;16.60;99.90;;;;;;5052481;28;20459;-62
2023/10/14 02:34:15;;;;;;;4.00;2.43;;;16.70;99.90;;;;;;5051924;28;20166;-62
2023/10/14 02:36:51;;;;;;;1.37;1.20;;;16.70;99.90;;;;;;5052399;28;20420;-62
2023/10/14 02:39:22;;;;;;;2.47;1.47;;;16.70;99.90;;;;;;5052522;28;20898;-62
2023/10/14 02:44:37;;;;;;;2.10;1.77;;;16.50;99.90;;;;;;5053457;28;20823;-62
2023/10/14 02:47:08;;;;;;;1.60;1.07;;;16.40;99.90;;;;;;5052320;28;20412;-62
2023/10/14 02:49:37;;;;;;;4.97;3.40;;;16.40;99.90;;;;;;5052368;28;20758;-62
2023/10/14 02:52:12;;;;;;;2.00;1.60;;;16.40;99.90;;;;;;5052284;28;20456;-62
2023/10/14 02:54:54;;;;;;;3.10;2.27;;;16.20;99.90;;;;;;5052167;28;20407;-62
2023/10/14 02:59:47;;;;;;;2.50;2.30;;;16.40;99.90;;;;;;5052144;28;20769;-62
2023/10/14 03:05:08;;;;;;;2.43;1.50;;;16.30;99.90;;;;;;5052071;28;20407;-62
2023/10/14 03:07:36;;;;;;;12.87;1.97;;;16.30;99.90;;;;;;5051786;28;20413;-62
2023/10/14 03:10:18;;;;;;;2.43;2.23;;;16.40;99.90;;;;;;5051890;28;20415;-62
2023/10/14 03:12:48;;;;;;;2.20;1.63;;;16.50;99.90;;;;;;5051924;28;20427;-62
2023/10/14 03:15:22;;;;;;;4.40;2.63;;;16.50;99.90;;;;;;5051777;28;20462;-62
2023/10/14 03:17:56;;;;;;;5.73;2.27;;;16.50;99.90;;;;;;5051601;28;20396;-62
2023/10/14 03:23:28;;;;;;;3.63;2.93;;;16.40;99.90;;;;;;5051846;28;20922;-61
2023/10/14 03:26:10;;;;;;;2.20;1.97;;;16.40;99.90;;;;;;5051150;28;20478;-61
2023/10/14 03:28:37;;;;;;;2.53;1.70;;;16.40;99.90;;;;;;5051448;28;20491;-62
2023/10/14 03:31:07;;;;;;;4.50;2.40;;;16.40;99.90;;;;;;5051503;28;20456;-62
2023/10/14 03:33:42;;;;;;;7.07;2.60;;;16.40;99.90;;;;;;5051525;28;20439;-62
2023/10/14 03:36:08;;;;;;;2.50;2.30;;;16.40;99.90;;;;;;5051446;28;20546;-62
2023/10/14 03:41:19;;;;;;;5.13;1.97;;;16.10;99.90;;;;;;5051662;28;20424;-62
2023/10/14 03:46:22;;;;;;;2.00;1.70;;;16.00;99.90;;;;;;5051204;28;20917;-62
2023/10/14 03:48:48;;;;;;;3.13;2.43;;;16.00;99.90;;;;;;5051176;28;20450;-62
2023/10/14 03:51:27;;;;;;;1.70;1.60;;;15.90;99.90;;;;;;5051273;28;20877;-62
2023/10/14 03:53:58;;;;;;;10.00;3.20;;;15.90;99.90;;;;;;5051316;28;20838;-62
2023/10/14 03:56:25;;;;;;;3.27;2.10;;;15.90;99.90;;;;;;5051266;28;20419;-62
2023/10/14 03:59:00;;;;;;;4.67;2.13;;;15.80;99.90;;;;;;5050996;28;20405;-62
2023/10/14 04:01:34;;;;;;;7.53;3.50;;;15.80;99.90;;;;;;5051272;28;20469;-62
2023/10/14 04:04:14;;;;;;;4.73;1.90;;;16.00;99.90;;;;;;5051316;28;20429;-61
2023/10/14 04:06:41;;;;;;;1.87;1.77;;;16.10;99.90;;;;;;5051439;28;20455;-61
2023/10/14 04:09:10;;;;;;;3.90;1.73;;;16.00;99.90;;;;;;5051213;28;20426;-62
2023/10/14 04:11:38;;;;;;;2.53;1.90;;;16.00;99.90;;;;;;5051038;28;20482;-62
2023/10/14 04:14:07;;;;;;;2.37;2.20;;;16.10;99.90;;;;;;5051037;28;20428;-62
2023/10/14 04:19:28;;;;;;;2.97;2.63;;;15.90;99.90;;;;;;5051170;28;20789;-61
2023/10/14 04:22:00;;;;;;;3.60;2.20;;;15.80;99.90;;;;;;5051167;28;20415;-62
2023/10/14 04:27:17;;;;;;;8.27;2.80;;;16.00;99.90;;;;;;5050745;28;20924;-62
2023/10/14 04:29:51;;;;;;;2.10;1.77;;;16.10;99.90;;;;;;5051086;28;20760;-62
2023/10/14 04:32:25;;;;;;;2.03;1.80;;;16.10;99.90;;;;;;5050998;28;20441;-62
2023/10/14 04:34:54;;;;;;;2.60;2.40;;;16.30;99.90;;;;;;5050919;28;20751;-62
2023/10/14 04:37:21;;;;;;;1.90;1.80;;;16.30;99.90;;;;;;5050804;28;20508;-62
2023/10/14 04:39:47;;;;;;;1.70;1.60;;;16.20;99.90;;;;;;5051098;28;20493;-62
2023/10/14 04:44:54;;;;;;;4.53;2.80;;;16.20;99.90;;;;;;5050977;28;20408;-61
2023/10/14 04:47:38;;;;;;;3.03;2.00;;;16.20;99.90;;;;;;5050629;28;20976;-62
2023/10/14 04:50:14;;;;;;;1.70;1.60;;;16.20;99.90;;;;;;5050879;28;20442;-62
2023/10/14 04:52:48;;;;;;;1.23;1.13;;;16.10;99.90;;;;;;5050805;28;20794;-62
2023/10/14 04:55:32;;;;;;;2.30;1.50;;;16.00;99.90;;;;;;5050707;28;20402;-61
2023/10/14 04:58:15;;;;;;;3.23;1.53;;;16.00;99.90;;;;;;5051607;28;20407;-62
2023/10/14 05:00:46;;;;;;;2.60;1.40;;;16.10;99.90;;;;;;5054475;28;20409;-62
2023/10/14 05:03:14;;;;;;;3.90;2.20;;;16.20;99.90;;;;;;5054306;28;20432;-62
2023/10/14 05:05:44;;;;;;;2.50;1.10;;;16.20;99.90;;;;;;5054542;28;20922;-62
2023/10/14 05:08:12;;;;;;;2.00;1.30;;;16.10;99.90;;;;;;5053936;28;20857;-62
2023/10/14 05:10:41;;;;;;;2.53;2.30;;;16.10;99.90;;;;;;5054393;28;21000;-62
2023/10/14 05:13:09;;;;;;;0.83;0.83;;;16.10;99.90;;;;;;5054231;28;20423;-62
2023/10/14 05:15:41;;;;;;;1.80;1.70;;;16.00;99.90;;;;;;5054090;28;20410;-62
2023/10/14 05:18:14;;;;;;;3.13;1.93;;;16.00;99.90;;;;;;5053865;28;20412;-62
2023/10/14 05:23:24;;;;;;;1.83;1.73;;;16.00;99.90;;;;;;5054014;28;20427;-62
2023/10/14 05:25:56;;;;;;;2.13;1.90;;;16.00;99.90;;;;;;5054585;28;20412;-62
2023/10/14 05:28:29;;;;;;;5.43;1.57;;;16.00;99.90;;;;;;5053755;28;20474;-62
2023/10/14 05:31:00;;;;;;;1.90;1.80;;;15.90;99.90;;;;;;5053756;28;20584;-62
2023/10/14 05:33:27;;;;;;;1.37;1.27;;;16.00;99.90;;;;;;5053787;28;20436;-62
2023/10/14 05:35:56;;;;;;;2.57;2.00;;;16.10;99.90;;;;;;5053808;28;20412;-62
2023/10/14 05:38:22;;;;;;;2.23;1.83;;;16.20;99.90;;;;;;5053572;28;20767;-62
2023/10/14 05:40:52;;;;;;;3.90;2.10;;;16.30;99.90;;;;;;5053643;28;20401;-62
2023/10/14 05:43:22;;;;;;;3.33;2.23;;;16.30;99.90;;;;;;5053451;28;20193;-62
2023/10/14 05:45:48;;;;;;;3.63;2.50;;;16.20;99.90;;;;;;5053457;28;20412;-62
2023/10/14 05:48:13;;;;;;;2.50;2.30;;;16.20;99.90;;;;;;5053237;28;20602;-62
2023/10/14 05:50:40;;;;;;;2.13;1.60;;;16.10;99.90;;;;;;5053345;28;20621;-62
2023/10/14 05:53:08;;;;;;;2.20;2.00;;;16.20;99.90;;;;;;5053280;28;20189;-62
2023/10/14 05:55:34;;;;;;;2.40;1.80;;;16.20;99.90;;;;;;5053304;28;20779;-62
2023/10/14 05:58:00;;;;;;;2.20;1.53;;;16.00;99.90;;;;;;5052891;28;20403;-62
2023/10/14 06:00:29;;;;;;;1.87;1.73;;;16.00;99.90;;;;;;5053230;28;20412;-62
2023/10/14 06:02:57;;;;;;;2.53;1.70;;;16.10;99.90;;;;;;5053289;28;20197;-62
2023/10/14 06:05:24;;;;;;;3.17;1.70;;;16.10;99.90;;;;;;5053164;28;20418;-62
2023/10/14 06:07:59;;;;;;;3.93;1.57;;;16.10;99.90;;;;;;5052678;28;20455;-62
2023/10/14 06:10:29;;;;;;;2.87;2.67;;;16.10;99.90;;;;;;5052932;28;20463;-62
2023/10/14 06:12:58;;;;;;;3.53;1.63;;;16.00;99.90;;;;;;5052805;28;20420;-62
2023/10/14 06:15:25;;;;;;;2.73;2.53;;;16.00;99.90;;;;;;5052931;28;20409;-62
2023/10/14 06:17:54;;;;;;;1.90;1.80;;;16.10;99.90;;;;;;5052871;28;20417;-62
2023/10/14 06:20:21;;;;;;;2.00;1.57;;;16.10;99.90;;;;;;5052851;28;20420;-62
2023/10/14 06:22:47;;;;;;;1.30;1.20;;;16.20;99.90;;;;;;5052622;28;20424;-62
2023/10/14 06:25:16;;;;;;;8.50;2.30;;;16.20;99.90;;;;;;5052600;28;20435;-62
2023/10/14 06:27:45;;;;;;;2.90;2.30;;;16.20;99.90;;;;;;5052609;28;20404;-62
2023/10/14 06:30:18;;;;;;;2.53;2.10;;;16.20;99.90;;;;;;5052676;28;20452;-62
2023/10/14 06:32:47;;;;;;;4.00;2.47;;;16.10;99.90;;;;;;5052652;28;20452;-62
2023/10/14 06:35:17;;;;;;;2.40;1.60;;;16.10;99.90;;;;;;5052549;28;20472;-62
2023/10/14 06:37:45;;;;;;;2.50;1.70;;;16.10;99.90;;;;;;5052325;28;20401;-62
2023/10/14 06:40:18;;;;;;;2.77;1.60;;;16.20;99.90;;;;;;5052580;28;20512;-62
2023/10/14 06:42:53;;;;;;;3.97;1.70;;;16.10;99.90;;;;;;5052329;28;20424;-61
2023/10/14 06:45:21;;;;;;;2.23;1.43;;;16.10;99.90;;;;;;5052488;28;20403;-62
2023/10/14 06:47:50;;;;;;;2.00;1.60;;;16.00;99.90;;;;;;5052265;28;20443;-61
2023/10/14 06:50:23;;;;;;;2.03;1.53;;;16.10;99.90;;;;;;5052211;28;20467;-62
2023/10/14 06:52:58;;;;;;;1.37;1.30;;;16.00;99.90;;;;;;5052363;28;20464;-62
2023/10/14 06:55:26;;;;;;;8.43;2.23;;;15.90;99.90;;;;;;5052303;28;20465;-62
2023/10/14 06:57:55;;;;;;;3.87;2.47;;;15.90;99.90;;;;;;5051899;28;20833;-62
2023/10/14 07:00:30;;;;;;;1.30;1.20;;;15.90;99.90;;;;;;5052023;28;20408;-62
2023/10/14 07:02:59;;;;;;;1.70;1.33;;;15.90;99.90;;;;;;5052038;28;20932;-62
2023/10/14 07:05:28;;;;;;;5.60;2.40;;;15.90;99.90;;;;;;5052001;28;20443;-61
2023/10/14 07:07:57;;;;;;;8.03;3.17;;;16.00;99.90;;;;;;5051831;28;20420;-62
2023/10/14 07:10:33;;;;;;;2.07;1.87;;;16.00;99.90;;;;;;5051824;28;20537;-61
2023/10/14 07:13:03;;;;;;;2.03;1.93;;;16.00;99.90;;;;;;5051745;28;20545;-62
2023/10/14 07:15:31;;;;;;;5.03;1.80;;;16.10;99.90;;;;;;5051901;28;20429;-62
2023/10/14 07:17:58;;;;;;;2.13;2.03;;;16.10;99.90;;;;;;5051423;28;20567;-62
2023/10/14 07:20:25;;;;;;;1.77;1.67;;;16.10;99.90;;;;;;5051299;28;20412;-62
2023/10/14 07:22:53;;;;;;;2.13;2.00;;;16.10;99.90;;;;;;5051654;28;20428;-62
2023/10/14 07:25:19;;;;;;;7.10;2.33;;;16.20;99.90;;;;;;5051620;28;20419;-62
2023/10/14 07:27:51;;;;;;;2.60;1.70;;;16.20;99.90;;;;;;5051411;28;20284;-61
2023/10/14 07:30:17;;;;;;;1.20;1.10;;;16.20;99.90;;;;;;5051544;28;20499;-62
2023/10/14 07:32:44;;;;;;;2.00;1.53;;;16.10;99.90;;;;;;5051543;28;20420;-62
2023/10/14 07:35:13;;;;;;;5.00;2.67;;;16.10;99.90;;;;;;5051527;28;20404;-62
2023/10/14 07:37:42;;;;;;;10.43;2.37;;;16.10;99.90;;;;;;5051229;28;20409;-62
2023/10/14 07:40:11;;;;;;;2.60;2.40;;;16.10;99.90;;;;;;5051396;28;20918;-62
2023/10/14 07:42:39;;;;;;;1.80;1.50;;;16.10;99.90;;;;;;5051395;28;20515;-62
2023/10/14 07:45:10;;;;;;;2.17;1.97;;;16.00;99.90;;;;;;5051377;28;20412;-61
2023/10/14 07:47:37;;;;;;;2.10;1.77;;;16.00;99.90;;;;;;5051099;28;20457;-62
2023/10/14 07:50:09;;;;;;;2.80;2.50;;;16.10;99.90;;;;;;5051175;28;20934;-62
2023/10/14 07:52:36;;;;;;;1.77;1.67;;;16.20;99.90;;;;;;5051138;28;20485;-62
2023/10/14 07:55:04;;;;;;;2.37;2.20;;;16.30;99.90;;;;;;5051229;28;20443;-62
2023/10/14 07:57:30;;;;;;;1.00;0.90;;;16.30;99.90;;;;;;5051213;28;20415;-62
2023/10/14 07:59:59;;;;;;;2.57;1.57;;;16.30;99.90;;;;;;5051317;28;20415;-62
2023/10/14 08:02:29;;;;;;;2.10;1.70;;;16.30;99.90;;;;;;5051237;28;20429;-62
2023/10/14 08:04:54;;;;;;;3.33;2.30;;;16.30;99.90;;;;;;5051070;28;20421;-61
2023/10/14 08:07:20;;;;;;;2.83;2.00;;;16.20;99.90;;;;;;5051992;28;20423;-62
2023/10/14 08:09:47;;;;;;;2.93;1.80;;;16.30;99.90;;;;;;5051468;28;20180;-62
2023/10/14 08:12:14;;;;;;;1.47;1.37;;;16.20;99.90;;;;;;5051038;28;20456;-62
2023/10/14 08:14:40;;;;;;;2.40;1.57;;;16.20;99.90;;;;;;5051066;28;20454;-62
2023/10/14 08:17:11;;;;;;;2.67;1.80;;;16.20;99.90;;;;;;5050794;28;20416;-62
2023/10/14 08:19:38;;;;;;;3.17;1.60;;;16.20;99.90;;;;;;5051030;28;20504;-62
2023/10/14 08:22:05;;;;;;;1.27;1.17;;;16.20;99.90;;;;;;5051023;28;20467;-62
2023/10/14 08:24:31;;;;;;;4.40;2.33;;;16.20;99.90;;;;;;5050971;28;20507;-62
2023/10/14 08:26:56;;;;;;;1.77;1.67;;;16.20;99.90;;;;;;5050719;28;20558;-61
2023/10/14 08:29:22;;;;;;;5.70;1.57;;;16.10;99.90;;;;;;5050991;28;20420;-62
2023/10/14 08:31:54;;;;;;;5.97;2.40;;;16.20;99.90;;;;;;5050903;28;20235;-62
2023/10/14 08:34:23;;;;;;;1.90;1.80;;;16.30;99.90;;;;;;5054274;28;20205;-62
2023/10/14 08:36:49;;;;;;;4.53;1.60;;;16.50;99.90;;;;;;5054528;28;20411;-62
2023/10/14 08:39:15;;;;;;;3.13;1.80;;;16.80;99.90;;;;;;5053560;28;20417;-62
2023/10/14 08:41:45;;;;;;;1.87;1.53;;;16.90;99.90;;;;;;5054920;28;20271;-62
2023/10/14 08:44:12;;;;;;;3.40;2.60;;;17.10;99.90;;;;;;5053453;28;20421;-61
2023/10/14 08:46:40;;;;;;;7.53;2.00;;;17.10;99.90;;;;;;5054288;28;20969;-62
2023/10/14 08:49:08;;;;;;;1.83;1.30;;;17.00;99.90;;;;;;5054645;28;20435;-62
2023/10/14 08:51:37;;;;;;;2.10;1.70;;;16.70;99.90;;;;;;5054795;28;20464;-62
2023/10/14 08:54:06;;;;;;;3.23;2.93;;;16.50;99.90;;;;;;5054765;28;20486;-62
2023/10/14 08:56:34;;;;;;;2.50;1.57;;;16.40;99.90;;;;;;5054372;28;20413;-62
2023/10/14 08:59:00;;;;;;;2.63;1.23;;;16.20;99.90;;;;;;5054318;28;20431;-62
2023/10/14 09:01:27;;;;;;;1.80;1.40;;;16.20;99.90;;;;;;5054245;28;20899;-62
2023/10/14 09:03:53;;;;;;;0.73;0.60;;;16.20;99.90;;;;;;5054353;28;20523;-62
2023/10/14 09:06:21;;;;;;;0.60;0.60;;;16.10;99.90;;;;;;5054276;28;20499;-62
2023/10/14 09:08:51;;;;;;;0.60;0.60;;;16.00;99.90;;;;;;5054243;28;20663;-62
2023/10/14 09:11:34;;;;;;;1.07;0.70;;;16.00;99.90;;;;;;5054125;28;20973;-62
2023/10/14 09:14:04;;;;;;;4.03;2.40;;;15.90;99.90;;;;;;5054150;28;20424;-62
2023/10/14 09:16:36;;;;;;;0.50;0.50;;;15.90;99.90;;;;;;5054047;28;20412;-62
2023/10/14 09:19:05;;;;;;;0.70;0.70;;;16.00;99.90;;;;;;5053959;28;20494;-62
2023/10/14 09:21:31;;;;;;;2.70;1.80;;;16.10;99.90;;;;;;5054091;28;20404;-62
2023/10/14 09:24:07;;;;;;;1.23;1.20;;;16.20;99.90;;;;;;5054001;28;20432;-62
2023/10/14 09:26:43;;;;;;;0.60;0.60;;;16.20;99.90;;;;;;5054110;28;20441;-61
2023/10/14 09:29:10;;;;;;;0.90;0.90;;;16.20;99.90;;;;;;5054049;28;20477;-63
2023/10/14 09:31:40;;;;;;;1.57;0.90;;;16.20;99.90;;;;;;5053813;28;20491;-61
2023/10/14 09:34:08;;;;;;;1.70;1.53;;;16.00;99.90;;;;;;5053688;28;20431;-62
2023/10/14 09:36:35;;;;;;;1.27;1.00;;;15.90;99.90;;;;;;5053608;28;20411;-62
2023/10/14 09:39:13;;;;;;;1.37;1.27;;;15.70;99.90;;;;;;5053491;28;20458;-62
2023/10/14 09:41:39;;;;;;;1.60;0.87;;;15.70;99.90;;;;;;5053868;28;20419;-62
2023/10/14 09:44:06;;;;;;;2.10;1.43;;;15.80;99.90;;;;;;5053206;28;20424;-61
2023/10/14 09:46:34;;;;;;;0.97;0.83;;;15.90;99.90;;;;;;5053302;28;20423;-62
2023/10/14 09:49:01;;;;;;;5.50;2.40;;;15.70;99.90;;;;;;5053205;28;20408;-62
2023/10/14 09:51:28;;;;;;;1.70;1.53;;;15.70;99.90;;;;;;5053152;28;20499;-62
2023/10/14 09:53:54;;;;;;;0.60;0.60;;;15.90;99.90;;;;;;5053417;28;20866;-62
2023/10/14 09:56:21;;;;;;;2.00;1.57;;;16.20;99.90;;;;;;5053202;28;20418;-61
2023/10/14 09:58:47;;;;;;;1.83;1.30;;;16.30;99.90;;;;;;5053142;28;20407;-62
2023/10/14 10:01:15;;;;;;;0.83;0.83;;;16.30;99.90;;;;;;5053253;28;20814;-62
2023/10/14 10:03:59;;;;;;;1.50;1.40;;;16.40;99.90;;;;;;5053075;28;20641;-62
2023/10/14 10:06:27;;;;;;;1.60;1.50;;;16.40;99.90;;;;;;5053094;28;20405;-62
2023/10/14 10:09:17;;;;;;;1.33;1.23;;;16.40;99.90;;;;;;5052829;28;20551;-62
2023/10/14 10:11:46;;;;;;;2.93;1.00;;;16.50;99.90;;;;;;5052969;28;20456;-62
2023/10/14 10:14:15;;;;;;;1.60;1.50;;;16.60;99.90;;;;;;5052791;28;20409;-62
2023/10/14 10:16:41;;;;;;;2.37;1.30;;;16.80;99.90;;;;;;5052618;28;20465;-62
2023/10/14 10:19:08;;;;;;;1.00;1.00;;;17.10;99.90;;;;;;5052962;28;20926;-62
2023/10/14 10:21:40;;;;;;;1.50;1.30;;;17.20;99.90;;;;;;5052946;28;20428;-62
2023/10/14 10:24:38;;;;;;;2.20;1.20;;;17.30;99.90;;;;;;5052926;28;20506;-62
2023/10/14 10:27:03;;;;;;;1.17;1.07;;;17.30;99.90;;;;;;5052491;28;20409;-62
2023/10/14 10:29:42;;;;;;;1.37;1.37;;;17.20;99.90;;;;;;5052741;28;20503;-62
2023/10/14 10:32:11;;;;;;;2.00;1.77;;;17.20;99.90;;;;;;5052618;28;20213;-62
2023/10/14 10:35:09;;;;;;;1.23;1.00;;;16.90;99.90;;;;;;5052607;28;20413;-62
2023/10/14 10:37:49;;;;;;;5.83;1.33;;;17.00;99.90;;;;;;5052210;28;20447;-62
2023/10/14 10:40:25;;;;;;;1.70;1.17;;;17.00;99.90;;;;;;5052563;28;20428;-62
2023/10/14 10:42:55;;;;;;;1.20;1.10;;;16.90;99.90;;;;;;5052408;28;20485;-62
2023/10/14 10:45:42;;;;;;;1.43;1.07;;;17.00;99.90;;;;;;5052304;28;20401;-62
2023/10/14 10:48:14;;;;;;;1.43;0.70;;;16.90;99.90;;;;;;5052250;28;20424;-62
2023/10/14 10:50:40;;;;;;;1.13;1.00;;;16.80;99.90;;;;;;5052026;28;20459;-62
2023/10/14 10:53:10;;;;;;;1.30;1.30;;;16.90;99.90;;;;;;5052077;28;20479;-62
2023/10/14 10:55:48;;;;;;;0.73;0.70;;;16.90;99.90;;;;;;5051422;28;20413;-62
2023/10/14 10:58:14;;;;;;;1.73;1.30;;;17.10;99.90;;;;;;5051757;28;20405;-62
2023/10/14 11:00:45;;;;;;;0.80;0.80;;;17.20;99.90;;;;;;5052317;28;20409;-62
2023/10/14 11:03:14;;;;;;;0.80;0.80;;;17.20;99.90;;;;;;5050603;28;20441;-62
2023/10/14 11:05:41;;;;;;;0.50;0.50;;;17.30;99.90;;;;;;5051896;28;20413;-62
2023/10/14 11:08:08;;;;;;;5.13;1.00;;;17.50;99.90;;;;;;5051472;28;20408;-62
2023/10/14 11:10:42;;;;;;;0.80;0.80;;;17.60;99.90;;;;;;5051603;28;20949;-62
2023/10/14 11:13:13;;;;;;;3.07;1.60;;;17.60;99.90;;;;;;5052035;28;20460;-62
2023/10/14 11:15:48;;;;;;;1.47;0.90;;;17.70;99.90;;;;;;5051760;28;20408;-62
2023/10/14 11:18:15;;;;;;;1.57;1.47;;;17.90;99.90;;;;;;5051434;28;20407;-62
2023/10/14 11:20:45;;;;;;;1.37;1.27;;;18.00;99.90;;;;;;5051517;28;20416;-62
2023/10/14 11:23:12;;;;;;;1.30;1.20;;;18.10;99.90;;;;;;5051460;28;20457;-62
2023/10/14 11:25:51;;;;;;;1.73;1.30;;;18.20;99.90;;;;;;5051817;28;20419;-62
2023/10/14 11:28:16;;;;;;;1.10;1.00;;;18.20;99.90;;;;;;5051416;28;20414;-62
2023/10/14 11:30:47;;;;;;;0.70;0.70;;;18.30;99.90;;;;;;5051318;28;20484;-62
2023/10/14 11:33:17;;;;;;;1.33;1.10;;;18.50;99.90;;;;;;5051270;28;20191;-62
2023/10/14 11:35:47;;;;;;;2.13;2.03;;;18.40;99.90;;;;;;5051470;28;20450;-62
2023/10/14 11:38:13;;;;;;;1.37;1.00;;;18.50;99.90;;;;;;5051315;28;20416;-62
2023/10/14 11:40:50;;;;;;;0.73;0.73;;;18.50;99.90;;;;;;5051471;28;20413;-62
2023/10/14 11:43:17;;;;;;;0.67;0.67;;;18.40;99.90;;;;;;5051381;28;20193;-62
2023/10/14 11:45:43;;;;;;;4.73;1.10;;;18.00;99.90;;;;;;5051199;28;20417;-62
2023/10/14 11:48:30;;;;;;;0.90;0.90;;;17.70;99.90;;;;;;5051001;28;20423;-62
2023/10/14 11:51:03;;;;;;;3.43;1.63;;;17.50;99.90;;;;;;5051101;28;20459;-62
2023/10/14 11:53:33;;;;;;;1.13;0.97;;;17.50;99.90;;;;;;5051391;28;20515;-62
2023/10/14 11:56:03;;;;;;;2.00;0.90;;;17.40;99.90;;;;;;5051165;28;20416;-62
2023/10/14 11:58:35;;;;;;;0.83;0.77;;;17.30;99.90;;;;;;5050996;28;20461;-62
2023/10/14 12:01:03;;;;;;;1.23;0.80;;;17.40;99.90;;;;;;5051447;28;20500;-62
2023/10/14 12:03:29;;;;;;;2.27;1.17;;;17.40;99.90;;;;;;5051269;28;20515;-62
2023/10/14 12:05:59;;;;;;;1.63;1.53;;;17.40;99.90;;;;;;5051177;28;20848;-62
2023/10/14 12:08:30;;;;;;;1.00;0.90;;;17.30;99.90;;;;;;5055595;28;20187;-62
2023/10/14 12:10:59;;;;;;;1.03;1.03;;;17.30;99.90;;;;;;5055864;28;20533;-62
2023/10/14 12:13:26;;;;;;;1.07;0.70;;;17.30;99.90;;;;;;5055367;28;20477;-61
2023/10/14 12:15:51;;;;;;;0.80;0.80;;;17.10;99.90;;;;;;5055373;28;20415;-62
2023/10/14 12:18:17;;;;;;;0.40;0.40;;;16.80;99.90;;;;;;5055022;28;20404;-62
2023/10/14 12:20:47;;;;;;;0.80;0.50;;;16.80;99.90;;;;;;5055206;28;20181;-62
2023/10/14 12:23:14;;;;;;;0.40;0.40;;;16.80;99.90;;;;;;5055071;28;20428;-62
2023/10/14 12:25:40;;;;;;;0.40;0.40;;;16.80;99.90;;;;;;5055036;28;20789;-62
2023/10/14 12:28:06;;;;;;;0.50;0.50;;;16.60;99.90;;;;;;5054681;28;20465;-62
2023/10/14 12:30:43;;;;;;;1.13;0.53;;;16.50;99.90;;;;;;5054766;28;20961;-62
2023/10/14 12:33:18;;;;;;;0.50;0.40;;;16.50;99.90;;;;;;5055130;28;20590;-62
2023/10/14 12:35:53;;;;;;;0.67;0.40;;;16.50;99.90;;;;;;5055359;28;20411;-62
2023/10/14 12:38:20;;;;;;;0.30;0.30;;;16.50;99.90;;;;;;5055029;28;20986;-62
2023/10/14 12:40:48;;;;;;;0.40;0.40;;;16.40;99.90;;;;;;5055074;28;20416;-62
2023/10/14 12:43:15;;;;;;;0.30;0.30;;;16.40;99.90;;;;;;5054623;28;20441;-61
2023/10/14 12:45:42;;;;;;;0.60;0.60;;;16.40;99.90;;;;;;5054813;28;20607;-62
2023/10/14 12:48:10;;;;;;;0.30;0.30;;;16.50;99.90;;;;;;5054394;28;20832;-62
2023/10/14 12:50:40;;;;;;;0.40;0.40;;;16.50;99.90;;;;;;5054298;28;20475;-62
2023/10/14 12:53:08;;;;;;;0.37;0.37;;;16.60;99.90;;;;;;5054479;28;20859;-62
2023/10/14 12:55:35;;;;;;;0.30;0.30;;;16.50;99.90;;;;;;5054462;28;20447;-62
2023/10/14 12:58:02;;;;;;;0.73;0.40;;;16.60;99.90;;;;;;5054145;28;20522;-62
2023/10/14 13:00:29;;;;;;;0.30;0.30;;;16.60;99.90;;;;;;5054395;28;20474;-62
2023/10/14 13:02:59;;;;;;;0.40;0.40;;;16.50;99.90;;;;;;5054100;28;20466;-62
2023/10/14 13:05:26;;;;;;;0.30;0.30;;;16.50;99.90;;;;;;5054503;28;20910;-62
2023/10/14 13:07:53;;;;;;;1.10;0.90;;;16.30;99.90;;;;;;5053937;28;20467;-62
2023/10/14 13:10:20;;;;;;;0.60;0.60;;;16.10;99.90;;;;;;5054154;28;20466;-62
2023/10/14 13:12:52;;;;;;;0.40;0.40;;;16.00;99.90;;;;;;5054318;28;20904;-62
2023/10/14 13:15:30;;;;;;;0.40;0.40;;;15.90;99.90;;;;;;5053964;28;20409;-62
2023/10/14 13:17:59;;;;;;;1.90;0.47;;;15.60;99.90;;;;;;5053597;28;20408;-62
2023/10/14 13:20:35;;;;;;;0.30;0.30;;;15.50;99.90;;;;;;5053635;28;20504;-62
2023/10/14 13:23:08;;;;;;;0.30;0.30;;;15.40;99.90;;;;;;5053926;28;20440;-62
2023/10/14 13:25:36;;;;;;;0.30;0.30;;;15.60;99.90;;;;;;5053793;28;20538;-62
2023/10/14 13:28:09;;;;;;;0.30;0.30;;;15.80;99.90;;;;;;5053926;28;20415;-62
2023/10/14 13:30:45;;;;;;;0.30;0.30;;;16.00;99.90;;;;;;5054500;28;20506;-62
2023/10/14 13:33:12;;;;;;;0.30;0.30;;;16.10;99.90;;;;;;5053881;28;20503;-62
2023/10/14 13:35:39;;;;;;;0.60;0.40;;;16.10;99.90;;;;;;5053658;28;20412;-62
2023/10/14 13:38:09;;;;;;;0.40;0.40;;;15.90;99.90;;;;;;5053443;28;20478;-62
2023/10/14 13:40:37;;;;;;;3.70;0.40;;;15.80;99.90;;;;;;5053538;28;20423;-62
2023/10/14 13:43:03;;;;;;;0.40;0.40;;;15.90;99.90;;;;;;5053812;28;20966;-61